Time;durP1;ratioP1;P1;durP2;ratioP2;P2;SDS_P1;SDS_P2;PMS_P1;PMS_P2;Temp;Humidity;BMP_temperature;BMP_pressure;BME280_temperature;BME280_humidity;BME280_pressure;Samples;Min_cycle;Max_cycle;Signal;HPM_P1;HPM_P2
2023/12/15 00:01:20;;;;;;;26.80;15.23;;;;;;;;;;5017046;28;20525;-67
2023/12/15 00:03:46;;;;;;;29.70;16.20;;;;;;;;;;5010799;28;20217;-66
2023/12/15 00:06:11;;;;;;;32.90;18.70;;;;;;;;;;5011922;28;20578;-66
2023/12/15 00:08:36;;;;;;;27.43;16.10;;;;;;;;;;5021150;28;20584;-67
2023/12/15 00:11:01;;;;;;;28.67;16.07;;;;;;;;;;5026885;28;20562;-65
2023/12/15 00:13:26;;;;;;;30.97;17.13;;;;;;;;;;5030638;28;20593;-66
2023/12/15 00:15:52;;;;;;;27.27;16.07;;;;;;;;;;5027875;28;20565;-67
2023/12/15 00:18:18;;;;;;;30.00;17.13;;;;;;;;;;5031578;28;20266;-66
2023/12/15 00:20:43;;;;;;;34.17;16.90;;;;;;;;;;5024865;28;20689;-68
2023/12/15 00:23:08;;;;;;;31.77;18.20;;;;;;;;;;5027125;28;20194;-67
2023/12/15 00:25:33;;;;;;;30.20;17.07;;;;;;;;;;5029322;28;20174;-68
2023/12/15 00:27:58;;;;;;;35.10;16.97;;;;;;;;;;5031934;28;20582;-66
2023/12/15 00:30:24;;;;;;;28.10;16.07;;;;;;;;;;5028867;28;20665;-67
2023/12/15 00:32:49;;;;;;;29.37;17.23;;;;;;;;;;5027238;28;20210;-66
2023/12/15 00:35:14;;;;;;;30.37;16.10;;;;;;;;;;5033378;28;20193;-67
2023/12/15 00:37:39;;;;;;;28.60;17.33;;;;;;;;;;5030793;28;20213;-67
2023/12/15 00:40:05;;;;;;;29.27;16.27;;;;;;;;;;5025294;28;20217;-68
2023/12/15 00:42:30;;;;;;;27.50;17.50;;;;;;;;;;5018042;28;20261;-69
2023/12/15 00:44:56;;;;;;;36.87;17.03;;;;;;;;;;5020739;28;20262;-68
2023/12/15 00:47:21;;;;;;;32.33;15.70;;;;;;;;;;5027094;28;20673;-68
2023/12/15 00:49:47;;;;;;;32.70;18.93;;;;;;;;;;5023003;28;20179;-67
2023/12/15 00:52:12;;;;;;;27.53;16.43;;;;;;;;;;5022965;28;20188;-67
2023/12/15 00:54:37;;;;;;;30.73;18.30;;;;;;;;;;5022647;28;20297;-67
2023/12/15 00:57:02;;;;;;;31.33;16.83;;;;;;;;;;5021618;28;20174;-67
2023/12/15 00:59:27;;;;;;;29.03;16.30;;;;;;;;;;5018623;28;20638;-67
2023/12/15 01:01:53;;;;;;;36.90;18.90;;;;;;;;;;5020137;28;20186;-67
2023/12/15 01:04:18;;;;;;;30.17;17.27;;;;;;;;;;5026413;28;20213;-67
2023/12/15 01:06:43;;;;;;;36.87;17.40;;;;;;;;;;5030431;28;20175;-67
2023/12/15 01:09:08;;;;;;;26.33;16.00;;;;;;;;;;5030311;28;20608;-67
2023/12/15 01:11:33;;;;;;;31.83;16.60;;;;;;;;;;5028121;28;20692;-67
2023/12/15 01:13:59;;;;;;;33.13;17.00;;;;;;;;;;5028708;28;20225;-67
2023/12/15 01:16:24;;;;;;;28.17;17.10;;;;;;;;;;5027128;28;20217;-67
2023/12/15 01:18:49;;;;;;;34.50;18.20;;;;;;;;;;5024627;28;20201;-68
2023/12/15 01:21:14;;;;;;;39.37;18.63;;;;;;;;;;5029044;28;20383;-68
2023/12/15 01:23:39;;;;;;;33.93;18.83;;;;;;;;;;5028979;28;20205;-67
2023/12/15 01:26:05;;;;;;;30.10;17.00;;;;;;;;;;5027193;28;20178;-69
2023/12/15 01:28:30;;;;;;;49.50;20.13;;;;;;;;;;5028334;28;20530;-68
2023/12/15 01:30:55;;;;;;;32.67;17.70;;;;;;;;;;5029266;28;20194;-68
2023/12/15 01:33:20;;;;;;;29.43;17.60;;;;;;;;;;5021793;28;20210;-68
2023/12/15 01:35:45;;;;;;;35.90;18.43;;;;;;;;;;5020913;28;20542;-67
2023/12/15 01:38:11;;;;;;;35.70;18.70;;;;;;;;;;5029810;28;20183;-68
2023/12/15 01:40:36;;;;;;;38.17;18.30;;;;;;;;;;5029886;28;20245;-66
2023/12/15 01:43:01;;;;;;;40.47;18.03;;;;;;;;;;5030057;28;20701;-67
2023/12/15 01:45:26;;;;;;;37.60;20.03;;;;;;;;;;5030227;28;20228;-67
2023/12/15 01:47:52;;;;;;;40.33;17.93;;;;;;;;;;5029262;28;20532;-68
2023/12/15 01:50:17;;;;;;;41.00;19.63;;;;;;;;;;5031443;28;20210;-67
2023/12/15 01:52:42;;;;;;;39.00;18.33;;;;;;;;;;5025405;28;20281;-66
2023/12/15 01:55:08;;;;;;;33.20;18.97;;;;;;;;;;5027293;28;20247;-67
2023/12/15 01:57:33;;;;;;;34.07;18.40;;;;;;;;;;5022537;28;20566;-66
2023/12/15 01:59:59;;;;;;;38.63;21.03;;;;;;;;;;5026932;28;20210;-68
2023/12/15 02:02:25;;;;;;;38.10;20.63;;;;;;;;;;5024195;28;20189;-67
2023/12/15 02:04:50;;;;;;;39.57;19.67;;;;;;;;;;5030355;28;20175;-67
2023/12/15 02:07:15;;;;;;;41.03;19.13;;;;;;;;;;5029808;28;20178;-65
2023/12/15 02:09:40;;;;;;;43.90;19.63;;;;;;;;;;5028602;28;20182;-66
2023/12/15 02:12:06;;;;;;;31.20;17.27;;;;;;;;;;5028380;28;20526;-65
2023/12/15 02:14:31;;;;;;;36.70;19.30;;;;;;;;;;5027323;28;20237;-67
2023/12/15 02:16:56;;;;;;;49.73;21.07;;;;;;;;;;5027634;28;20564;-67
2023/12/15 02:19:21;;;;;;;32.57;18.57;;;;;;;;;;5020403;28;20202;-66
2023/12/15 02:21:47;;;;;;;38.93;20.47;;;;;;;;;;5023365;28;20177;-68
2023/12/15 02:24:12;;;;;;;32.10;18.83;;;;;;;;;;5032161;28;20206;-67
2023/12/15 02:26:37;;;;;;;36.00;19.07;;;;;;;;;;5030525;28;20318;-67
2023/12/15 02:29:02;;;;;;;39.60;18.80;;;;;;;;;;5031246;28;20565;-67
2023/12/15 02:31:27;;;;;;;31.77;18.33;;;;;;;;;;5033010;28;20182;-68
2023/12/15 02:33:53;;;;;;;35.13;18.17;;;;;;;;;;5032948;28;20257;-67
2023/12/15 02:36:21;;;;;;;38.77;19.50;;;;;;;;;;5032828;28;20206;-68
2023/12/15 02:38:47;;;;;;;34.20;19.43;;;;;;;;;;5021137;28;20573;-66
2023/12/15 02:41:12;;;;;;;33.07;18.90;;;;;;;;;;5029018;28;20178;-67
2023/12/15 02:43:38;;;;;;;32.93;18.83;;;;;;;;;;5034340;28;20206;-66
2023/12/15 02:46:04;;;;;;;34.83;19.87;;;;;;;;;;5032454;28;20175;-67
2023/12/15 02:48:29;;;;;;;34.90;18.90;;;;;;;;;;5033499;28;20181;-67
2023/12/15 02:50:54;;;;;;;34.60;19.10;;;;;;;;;;5032814;28;20170;-67
2023/12/15 02:53:19;;;;;;;32.43;18.07;;;;;;;;;;5029542;28;20221;-66
2023/12/15 02:55:44;;;;;;;33.57;19.03;;;;;;;;;;5026331;28;20175;-67
2023/12/15 02:58:10;;;;;;;33.30;19.13;;;;;;;;;;5030369;28;20671;-67
2023/12/15 03:00:35;;;;;;;37.10;19.03;;;;;;;;;;5024548;28;20214;-67
2023/12/15 03:03:00;;;;;;;38.47;19.93;;;;;;;;;;5029861;28;20680;-66
2023/12/15 03:05:25;;;;;;;31.40;18.57;;;;;;;;;;5031464;28;20181;-68
2023/12/15 03:07:51;;;;;;;31.83;18.03;;;;;;;;;;5033171;28;20176;-70
2023/12/15 03:10:16;;;;;;;37.87;18.10;;;;;;;;;;5033110;28;20174;-67
2023/12/15 03:12:41;;;;;;;30.17;18.10;;;;;;;;;;5033957;28;20206;-66
2023/12/15 03:15:07;;;;;;;34.97;18.33;;;;;;;;;;5022036;28;20201;-66
2023/12/15 03:17:32;;;;;;;30.17;16.73;;;;;;;;;;5027014;28;20340;-68
2023/12/15 03:19:57;;;;;;;36.17;19.63;;;;;;;;;;5030273;28;20215;-67
2023/12/15 03:22:22;;;;;;;33.60;17.80;;;;;;;;;;5032626;28;20236;-68
2023/12/15 03:24:48;;;;;;;30.53;19.23;;;;;;;;;;5030316;28;20186;-67
2023/12/15 03:27:13;;;;;;;33.87;18.07;;;;;;;;;;5032413;28;20256;-67
2023/12/15 03:29:38;;;;;;;25.37;17.40;;;;;;;;;;5032141;28;20573;-68
2023/12/15 03:32:03;;;;;;;29.00;17.27;;;;;;;;;;5031871;28;20178;-67
2023/12/15 03:34:28;;;;;;;31.50;17.27;;;;;;;;;;5024859;28;20202;-68
2023/12/15 03:36:54;;;;;;;30.57;16.50;;;;;;;;;;5022406;28;20713;-66
2023/12/15 03:39:19;;;;;;;34.33;18.40;;;;;;;;;;5030413;28;20651;-68
2023/12/15 03:41:44;;;;;;;39.33;17.67;;;;;;;;;;5027793;28;20189;-68
2023/12/15 03:44:09;;;;;;;29.10;16.97;;;;;;;;;;5023085;28;20216;-67
2023/12/15 03:46:34;;;;;;;26.30;16.63;;;;;;;;;;5021280;28;20190;-67
2023/12/15 03:49:00;;;;;;;29.37;16.67;;;;;;;;;;5027027;28;20184;-67
2023/12/15 03:51:25;;;;;;;28.87;16.70;;;;;;;;;;5021543;28;20751;-68
2023/12/15 03:53:50;;;;;;;26.90;15.83;;;;;;;;;;5024268;28;20241;-67
2023/12/15 03:56:22;;;;;;;30.63;16.63;;;;;;;;;;5025232;28;20178;-67
2023/12/15 03:58:47;;;;;;;27.53;15.97;;;;;;;;;;5029799;28;20233;-67
2023/12/15 04:01:12;;;;;;;26.87;16.57;;;;;;;;;;5032009;28;20597;-68
2023/12/15 04:03:38;;;;;;;31.07;15.67;;;;;;;;;;5029879;28;20198;-68
2023/12/15 04:06:07;;;;;;;32.87;16.97;;;;;;;;;;5030943;28;20549;-68
2023/12/15 04:08:32;;;;;;;27.57;15.47;;;;;;;;;;5030229;28;20175;-66
2023/12/15 04:10:57;;;;;;;28.30;16.30;;;;;;;;;;5020638;28;20557;-67
2023/12/15 04:13:23;;;;;;;29.63;17.37;;;;;;;;;;5008194;28;20293;-66
2023/12/15 04:15:48;;;;;;;28.70;16.00;;;;;;;;;;5009315;28;20179;-67
2023/12/15 04:18:13;;;;;;;28.80;17.23;;;;;;;;;;5010815;28;20921;-66
2023/12/15 04:20:38;;;;;;;30.47;18.07;;;;;;;;;;5009269;28;20210;-67
2023/12/15 04:23:03;;;;;;;30.20;16.47;;;;;;;;;;5007598;28;20205;-65
2023/12/15 04:25:29;;;;;;;30.57;15.97;;;;;;;;;;5008232;28;20170;-67
2023/12/15 04:27:54;;;;;;;26.10;15.20;;;;;;;;;;5008367;28;20233;-65
2023/12/15 04:30:19;;;;;;;29.47;15.97;;;;;;;;;;5009950;28;20186;-66
2023/12/15 04:32:45;;;;;;;37.03;17.20;;;;;;;;;;5008042;28;20799;-67
2023/12/15 04:35:10;;;;;;;30.17;16.37;;;;;;;;;;5018466;28;20186;-68
2023/12/15 04:37:35;;;;;;;27.60;15.60;;;;;;;;;;5008757;28;20182;-66
2023/12/15 04:40:00;;;;;;;31.47;16.50;;;;;;;;;;5010242;28;20239;-68
2023/12/15 04:42:27;;;;;;;30.00;15.80;;;;;;;;;;5011464;28;20914;-67
2023/12/15 04:44:53;;;;;;;26.13;16.00;;;;;;;;;;5029196;28;20178;-66
2023/12/15 04:47:18;;;;;;;22.87;14.53;;;;;;;;;;5031697;28;20668;-68
2023/12/15 04:49:43;;;;;;;23.93;14.77;;;;;;;;;;5029450;28;20178;-67
2023/12/15 04:52:10;;;;;;;23.17;14.03;;;;;;;;;;5021508;28;20186;-66
2023/12/15 04:54:35;;;;;;;31.27;15.73;;;;;;;;;;5023993;28;20908;-68
2023/12/15 04:57:01;;;;;;;24.17;14.33;;;;;;;;;;5028972;28;20205;-68
2023/12/15 04:59:26;;;;;;;26.47;14.33;;;;;;;;;;5013153;28;20252;-67
2023/12/15 05:01:51;;;;;;;26.63;14.80;;;;;;;;;;5020651;28;20181;-67
2023/12/15 05:04:16;;;;;;;27.20;14.87;;;;;;;;;;5007176;28;20684;-67
2023/12/15 05:06:41;;;;;;;24.90;13.93;;;;;;;;;;5005599;28;20555;-65
2023/12/15 05:09:09;;;;;;;26.07;14.70;;;;;;;;;;5007499;28;20229;-66
2023/12/15 05:11:34;;;;;;;24.87;14.80;;;;;;;;;;5006645;28;20186;-67
2023/12/15 05:14:00;;;;;;;27.27;15.07;;;;;;;;;;5006896;28;20210;-68
2023/12/15 05:16:25;;;;;;;23.60;13.23;;;;;;;;;;5008054;28;20182;-67
2023/12/15 05:18:50;;;;;;;29.50;14.93;;;;;;;;;;5008145;28;20673;-66
2023/12/15 05:21:15;;;;;;;38.47;14.27;;;;;;;;;;5008606;28;20189;-67
2023/12/15 05:23:41;;;;;;;24.23;14.03;;;;;;;;;;5006729;28;20304;-68
2023/12/15 05:26:06;;;;;;;26.27;13.43;;;;;;;;;;5010382;28;20178;-68
2023/12/15 05:28:31;;;;;;;23.87;13.90;;;;;;;;;;5008520;28;20198;-66
2023/12/15 05:30:56;;;;;;;31.80;13.50;;;;;;;;;;5009624;28;20183;-67
2023/12/15 05:33:21;;;;;;;28.70;14.13;;;;;;;;;;5008233;28;20194;-67
2023/12/15 05:35:47;;;;;;;20.87;12.43;;;;;;;;;;5008581;28;20184;-68
2023/12/15 05:38:12;;;;;;;32.33;13.37;;;;;;;;;;5009853;28;20182;-67
2023/12/15 05:40:37;;;;;;;23.60;12.40;;;;;;;;;;5008236;28;20646;-67
2023/12/15 05:43:02;;;;;;;31.13;13.53;;;;;;;;;;5007725;28;20221;-68
2023/12/15 05:45:28;;;;;;;21.17;12.13;;;;;;;;;;5007933;28;20269;-67
2023/12/15 05:47:53;;;;;;;22.27;11.33;;;;;;;;;;5004332;28;20178;-66
2023/12/15 05:50:18;;;;;;;22.23;12.47;;;;;;;;;;5008234;28;20199;-67
2023/12/15 05:52:43;;;;;;;21.57;12.37;;;;;;;;;;5005487;28;20265;-67
2023/12/15 05:55:08;;;;;;;21.87;12.80;;;;;;;;;;5006811;28;20217;-66
2023/12/15 05:57:34;;;;;;;30.63;16.30;;;;;;;;;;5010228;28;20178;-68
2023/12/15 05:59:59;;;;;;;26.13;14.43;;;;;;;;;;5005079;28;20563;-67
2023/12/15 06:02:24;;;;;;;27.87;14.23;;;;;;;;;;5007300;28;20178;-66
2023/12/15 06:04:49;;;;;;;23.63;14.33;;;;;;;;;;5007945;28;21276;-67
2023/12/15 06:07:15;;;;;;;24.63;13.50;;;;;;;;;;5006196;28;20174;-68
2023/12/15 06:09:41;;;;;;;25.10;13.37;;;;;;;;;;5006875;28;20926;-68
2023/12/15 06:12:07;;;;;;;27.50;13.63;;;;;;;;;;5005502;28;20187;-66
2023/12/15 06:14:33;;;;;;;26.10;14.27;;;;;;;;;;5006941;28;20217;-67
2023/12/15 06:16:59;;;;;;;25.57;13.53;;;;;;;;;;5008335;28;20178;-67
2023/12/15 06:19:24;;;;;;;24.03;13.63;;;;;;;;;;5006378;28;20753;-67
2023/12/15 06:21:50;;;;;;;34.20;15.53;;;;;;;;;;5008953;28;20178;-67
2023/12/15 06:24:15;;;;;;;30.77;14.00;;;;;;;;;;5007305;28;20197;-66
2023/12/15 06:26:40;;;;;;;24.50;12.90;;;;;;;;;;5009410;28;20757;-67
2023/12/15 06:29:05;;;;;;;25.13;13.33;;;;;;;;;;5016261;28;20792;-67
2023/12/15 06:31:31;;;;;;;27.73;13.60;;;;;;;;;;5011479;28;20182;-67
2023/12/15 06:33:56;;;;;;;21.93;12.20;;;;;;;;;;5010001;28;20198;-68
2023/12/15 06:36:22;;;;;;;32.37;13.87;;;;;;;;;;5014543;28;20183;-67
2023/12/15 06:38:47;;;;;;;28.93;14.23;;;;;;;;;;5011088;28;20685;-67
2023/12/15 06:41:12;;;;;;;26.67;13.63;;;;;;;;;;5014432;28;20187;-67
2023/12/15 06:43:38;;;;;;;29.93;13.73;;;;;;;;;;5012038;28;20217;-68
2023/12/15 06:46:03;;;;;;;28.10;14.40;;;;;;;;;;5012633;28;20213;-66
2023/12/15 06:48:29;;;;;;;26.93;15.33;;;;;;;;;;5011514;28;20630;-67
2023/12/15 06:50:54;;;;;;;24.40;12.47;;;;;;;;;;5011187;28;20186;-68
2023/12/15 06:53:19;;;;;;;19.27;11.90;;;;;;;;;;5008995;28;20205;-67
2023/12/15 06:55:44;;;;;;;28.83;13.23;;;;;;;;;;5010422;28;20606;-68
2023/12/15 06:58:09;;;;;;;29.83;13.37;;;;;;;;;;5009126;28;20603;-67
2023/12/15 07:00:35;;;;;;;23.80;12.93;;;;;;;;;;5011539;28;20301;-67
2023/12/15 07:03:00;;;;;;;28.17;12.87;;;;;;;;;;5005350;28;20202;-67
2023/12/15 07:05:25;;;;;;;27.53;13.43;;;;;;;;;;5018873;28;20715;-67
2023/12/15 07:07:50;;;;;;;28.07;13.50;;;;;;;;;;5032654;28;20296;-67
2023/12/15 07:10:16;;;;;;;21.77;11.60;;;;;;;;;;5032628;28;20189;-67
2023/12/15 07:12:42;;;;;;;21.17;11.87;;;;;;;;;;5030887;28;20209;-67
2023/12/15 07:15:07;;;;;;;22.97;12.43;;;;;;;;;;5010880;28;20790;-68
2023/12/15 07:17:32;;;;;;;30.13;12.93;;;;;;;;;;5012160;28;20320;-66
2023/12/15 07:19:57;;;;;;;28.57;12.17;;;;;;;;;;5011429;28;20234;-68
2023/12/15 07:22:23;;;;;;;25.37;12.93;;;;;;;;;;5010330;28;20183;-67
2023/12/15 07:24:48;;;;;;;27.73;12.83;;;;;;;;;;5014383;28;20224;-67
2023/12/15 07:27:14;;;;;;;24.60;12.20;;;;;;;;;;5010670;28;20183;-69
2023/12/15 07:29:39;;;;;;;22.43;11.77;;;;;;;;;;5013175;28;20179;-67
2023/12/15 07:32:04;;;;;;;19.40;10.77;;;;;;;;;;5015620;28;22066;-67
2023/12/15 07:34:29;;;;;;;21.07;11.27;;;;;;;;;;5015659;28;20210;-68
2023/12/15 07:36:55;;;;;;;20.73;10.17;;;;;;;;;;5010033;28;20178;-67
2023/12/15 07:39:21;;;;;;;22.53;10.50;;;;;;;;;;5011676;28;20221;-67
2023/12/15 07:41:50;;;;;;;26.60;11.20;;;;;;;;;;5018022;28;20228;-65
2023/12/15 07:44:15;;;;;;;22.17;9.90;;;;;;;;;;5024634;28;21166;-66
2023/12/15 07:46:41;;;;;;;30.47;12.00;;;;;;;;;;5011963;28;20182;-66
2023/12/15 07:49:06;;;;;;;28.90;10.37;;;;;;;;;;5012236;28;20182;-66
2023/12/15 07:51:32;;;;;;;24.90;9.57;;;;;;;;;;5010962;28;20189;-66
2023/12/15 07:53:57;;;;;;;22.63;10.23;;;;;;;;;;5010658;28;20202;-67
2023/12/15 07:56:24;;;;;;;17.60;8.40;;;;;;;;;;5017124;28;20333;-66
2023/12/15 07:58:49;;;;;;;30.53;9.33;;;;;;;;;;5009840;28;20317;-66
2023/12/15 08:01:16;;;;;;;25.03;9.43;;;;;;;;;;5012220;28;20412;-66
2023/12/15 08:03:42;;;;;;;18.80;9.23;;;;;;;;;;5013704;28;20264;-67
2023/12/15 08:06:07;;;;;;;23.80;8.67;;;;;;;;;;5011321;28;20174;-66
2023/12/15 08:08:32;;;;;;;20.00;9.43;;;;;;;;;;5009084;28;20182;-66
2023/12/15 08:10:57;;;;;;;25.70;9.83;;;;;;;;;;5009499;28;20191;-65
2023/12/15 08:13:23;;;;;;;22.23;10.00;;;;;;;;;;5009865;28;20209;-67
2023/12/15 08:15:48;;;;;;;23.33;8.57;;;;;;;;;;5009044;28;20994;-67
2023/12/15 08:18:13;;;;;;;22.47;8.20;;;;;;;;;;5008742;28;20190;-67
2023/12/15 08:20:38;;;;;;;18.67;9.43;;;;;;;;;;5013494;28;20210;-67
2023/12/15 08:23:03;;;;;;;29.00;9.13;;;;;;;;;;5009732;28;20747;-67
2023/12/15 08:25:29;;;;;;;27.07;9.90;;;;;;;;;;5008620;28;20665;-68
2023/12/15 08:27:54;;;;;;;25.80;9.23;;;;;;;;;;5010975;28;20187;-67
2023/12/15 08:30:19;;;;;;;20.53;8.03;;;;;;;;;;5011467;28;20186;-68
2023/12/15 08:32:44;;;;;;;22.13;9.27;;;;;;;;;;5010138;28;20308;-68
2023/12/15 08:35:09;;;;;;;24.53;9.10;;;;;;;;;;5011073;28;20691;-69
2023/12/15 08:37:35;;;;;;;21.03;8.67;;;;;;;;;;5010045;28;21775;-68
2023/12/15 08:40:00;;;;;;;21.20;7.70;;;;;;;;;;5011322;28;20202;-69
2023/12/15 08:42:25;;;;;;;22.83;9.57;;;;;;;;;;5013995;28;21894;-68
2023/12/15 08:44:50;;;;;;;20.90;8.43;;;;;;;;;;5009355;28;20182;-68
2023/12/15 08:47:15;;;;;;;23.83;8.57;;;;;;;;;;5009057;28;20252;-67
2023/12/15 08:49:41;;;;;;;18.77;7.77;;;;;;;;;;5009192;28;20213;-67
2023/12/15 08:52:06;;;;;;;18.00;7.33;;;;;;;;;;5009816;28;20182;-67
2023/12/15 08:54:31;;;;;;;16.53;7.53;;;;;;;;;;5010872;28;20293;-67
2023/12/15 08:56:56;;;;;;;23.53;8.30;;;;;;;;;;5009055;28;20191;-67
2023/12/15 08:59:21;;;;;;;21.67;7.97;;;;;;;;;;5009792;28;20701;-67
2023/12/15 09:01:47;;;;;;;20.40;8.40;;;;;;;;;;5007703;28;20235;-68
2023/12/15 09:04:12;;;;;;;21.73;8.80;;;;;;;;;;5009829;28;20205;-67
2023/12/15 09:06:37;;;;;;;24.27;7.73;;;;;;;;;;5010350;28;20175;-67
2023/12/15 09:09:03;;;;;;;17.93;7.60;;;;;;;;;;5011018;28;20190;-67
2023/12/15 09:11:28;;;;;;;22.00;7.77;;;;;;;;;;5009452;28;20261;-67
2023/12/15 09:13:53;;;;;;;23.30;7.97;;;;;;;;;;5024955;28;20290;-67
2023/12/15 09:16:18;;;;;;;12.50;7.00;;;;;;;;;;5009774;28;20646;-68
2023/12/15 09:18:44;;;;;;;18.00;7.90;;;;;;;;;;5008866;28;20279;-66
2023/12/15 09:21:09;;;;;;;15.93;8.33;;;;;;;;;;5009646;28;20696;-68
2023/12/15 09:23:34;;;;;;;15.37;6.77;;;;;;;;;;5008951;28;20202;-66
2023/12/15 09:25:59;;;;;;;13.80;6.90;;;;;;;;;;5009505;28;20181;-66
2023/12/15 09:28:25;;;;;;;16.60;7.97;;;;;;;;;;5010113;28;20368;-67
2023/12/15 09:30:50;;;;;;;15.10;6.90;;;;;;;;;;5011446;28;20189;-67
2023/12/15 09:33:15;;;;;;;16.80;6.83;;;;;;;;;;5008625;28;20227;-68
2023/12/15 09:35:40;;;;;;;18.60;7.60;;;;;;;;;;5003531;28;20767;-68
2023/12/15 09:38:06;;;;;;;17.23;7.77;;;;;;;;;;5008311;28;20182;-68
2023/12/15 09:40:32;;;;;;;13.27;6.70;;;;;;;;;;5011188;28;20210;-68
2023/12/15 09:42:57;;;;;;;14.90;6.90;;;;;;;;;;5007726;28;20229;-68
2023/12/15 09:45:22;;;;;;;13.37;5.93;;;;;;;;;;5009764;28;20170;-67
2023/12/15 09:47:47;;;;;;;26.60;7.73;;;;;;;;;;5008363;28;20228;-68
2023/12/15 09:50:13;;;;;;;12.70;5.63;;;;;;;;;;5008222;28;20186;-67
2023/12/15 09:52:42;;;;;;;15.27;6.80;;;;;;;;;;5006180;28;20665;-68
2023/12/15 09:55:07;;;;;;;16.83;5.93;;;;;;;;;;5007477;28;20196;-68
2023/12/15 09:57:33;;;;;;;18.43;6.70;;;;;;;;;;5011448;28;20217;-68
2023/12/15 09:59:59;;;;;;;14.30;6.50;;;;;;;;;;5007325;28;20604;-66
2023/12/15 10:02:24;;;;;;;22.47;6.53;;;;;;;;;;5008662;28;20190;-66
2023/12/15 10:04:50;;;;;;;14.10;5.73;;;;;;;;;;5008616;28;20185;-67
2023/12/15 10:07:15;;;;;;;15.17;5.67;;;;;;;;;;5004793;28;20548;-66
2023/12/15 10:09:40;;;;;;;13.57;5.40;;;;;;;;;;5004742;28;20247;-68
2023/12/15 10:12:09;;;;;;;15.53;4.80;;;;;;;;;;5005497;28;20220;-67
2023/12/15 10:14:38;;;;;;;12.40;5.43;;;;;;;;;;5008655;28;20201;-67
2023/12/15 10:17:12;;;;;;;16.57;6.53;;;;;;;;;;5008591;28;20182;-68
2023/12/15 10:19:38;;;;;;;13.50;5.80;;;;;;;;;;5006008;28;20214;-67
2023/12/15 10:22:04;;;;;;;14.10;4.80;;;;;;;;;;5008882;28;20189;-68
2023/12/15 10:24:29;;;;;;;18.08;5.47;;;;;;;;;;5005311;28;20205;-67
2023/12/15 10:26:54;;;;;;;15.35;4.68;;;;;;;;;;5008491;28;20269;-68
2023/12/15 10:29:20;;;;;;;15.57;4.75;;;;;;;;;;5007165;28;20229;-68
2023/12/15 10:31:47;;;;;;;16.37;6.40;;;;;;;;;;5008851;28;20241;-67
2023/12/15 10:34:14;;;;;;;12.67;5.13;;;;;;;;;;5011457;28;20237;-69
2023/12/15 10:36:44;;;;;;;13.27;3.77;;;;;;;;;;5011890;28;20178;-68
2023/12/15 10:39:10;;;;;;;9.40;3.55;;;;;;;;;;5006808;28;20280;-68
2023/12/15 10:41:36;;;;;;;11.68;5.00;;;;;;;;;;5011003;28;20658;-68
2023/12/15 10:44:01;;;;;;;11.80;4.40;;;;;;;;;;5009248;28;20705;-68
2023/12/15 10:46:31;;;;;;;12.10;3.90;;;;;;;;;;5012661;28;20178;-68
2023/12/15 10:48:58;;;;;;;22.77;4.65;;;;;;;;;;5011754;28;20193;-68
2023/12/15 10:51:24;;;;;;;15.60;4.87;;;;;;;;;;5011228;28;20273;-68
2023/12/15 10:53:51;;;;;;;10.73;3.38;;;;;;;;;;5012666;28;20209;-68
2023/12/15 10:56:16;;;;;;;13.67;4.80;;;;;;;;;;5015583;28;20178;-67
2023/12/15 10:58:42;;;;;;;15.82;4.70;;;;;;;;;;5012691;28;20193;-68
2023/12/15 11:01:10;;;;;;;9.13;4.40;;;;;;;;;;5011830;28;20967;-67
2023/12/15 11:03:36;;;;;;;10.75;4.22;;;;;;;;;;5010705;28;20201;-68
2023/12/15 11:06:01;;;;;;;16.40;4.87;;;;;;;;;;5008076;28;20198;-68
2023/12/15 11:08:26;;;;;;;17.83;4.80;;;;;;;;;;5012565;28;20211;-67
2023/12/15 11:10:52;;;;;;;17.60;4.57;;;;;;;;;;5012336;28;20186;-67
2023/12/15 11:13:36;;;;;;;7.57;3.72;;;;;;;;;;5011696;28;20426;-68
2023/12/15 11:16:01;;;;;;;11.23;3.08;;;;;;;;;;5011635;28;20527;-67
2023/12/15 11:18:26;;;;;;;14.57;4.43;;;;;;;;;;5012720;28;20304;-67
2023/12/15 11:20:51;;;;;;;16.40;4.30;;;;;;;;;;5010735;28;20202;-67
2023/12/15 11:23:17;;;;;;;11.73;3.67;;;;;;;;;;5011638;28;20198;-68
2023/12/15 11:25:45;;;;;;;9.35;3.35;;;;;;;;;;5013588;28;21183;-67
2023/12/15 11:28:15;;;;;;;9.68;3.85;;;;;;;;;;5011654;28;20190;-67
2023/12/15 11:30:48;;;;;;;9.07;2.88;;;;;;;;;;5025329;28;20186;-68
2023/12/15 11:33:29;;;;;;;6.82;3.72;;;;;;;;;;5011805;28;20207;-67
2023/12/15 11:36:05;;;;;;;10.50;4.55;;;;;;;;;;5010115;28;20564;-69
2023/12/15 11:38:30;;;;;;;9.98;3.05;;;;;;;;;;5011394;28;20177;-67
2023/12/15 11:40:56;;;;;;;11.98;3.28;;;;;;;;;;5016703;28;20202;-67
2023/12/15 11:43:23;;;;;;;9.13;3.08;;;;;;;;;;5011675;28;20237;-67
2023/12/15 11:45:50;;;;;;;22.55;3.45;;;;;;;;;;5011133;28;20181;-69
2023/12/15 11:48:16;;;;;;;12.38;3.13;;;;;;;;;;5010450;28;20186;-67
2023/12/15 11:50:42;;;;;;;13.32;3.25;;;;;;;;;;5010381;28;20187;-68
2023/12/15 11:53:09;;;;;;;10.18;3.45;;;;;;;;;;5011318;28;20209;-68
2023/12/15 11:55:35;;;;;;;9.38;2.70;;;;;;;;;;5010079;28;20569;-67
2023/12/15 11:58:00;;;;;;;10.50;3.17;;;;;;;;;;5012122;28;20188;-69
2023/12/15 12:00:26;;;;;;;13.25;3.22;;;;;;;;;;5011647;28;20222;-68
2023/12/15 12:02:51;;;;;;;8.38;2.67;;;;;;;;;;5012120;28;20291;-68
2023/12/15 12:05:18;;;;;;;11.38;3.38;;;;;;;;;;5009568;28;20186;-68
2023/12/15 12:07:43;;;;;;;12.82;3.28;;;;;;;;;;5011735;28;20179;-68
2023/12/15 12:10:10;;;;;;;9.40;3.78;;;;;;;;;;5009599;28;20200;-69
2023/12/15 12:12:35;;;;;;;13.75;3.83;;;;;;;;;;5010514;28;20205;-67
2023/12/15 12:15:04;;;;;;;10.35;3.50;;;;;;;;;;5009816;28;20189;-68
2023/12/15 12:17:30;;;;;;;13.82;3.17;;;;;;;;;;5010976;28;20784;-68
2023/12/15 12:20:01;;;;;;;13.68;3.72;;;;;;;;;;5009777;28;20283;-68
2023/12/15 12:22:26;;;;;;;10.23;3.33;;;;;;;;;;5014445;28;20190;-67
2023/12/15 12:24:51;;;;;;;7.95;2.90;;;;;;;;;;5013145;28;20178;-69
2023/12/15 12:27:17;;;;;;;8.85;2.70;;;;;;;;;;5009578;28;20191;-67
2023/12/15 12:29:42;;;;;;;8.00;2.38;;;;;;;;;;5010421;28;20186;-68
2023/12/15 12:32:09;;;;;;;9.48;2.97;;;;;;;;;;5009935;28;20178;-66
2023/12/15 12:34:34;;;;;;;6.80;2.00;;;;;;;;;;5023749;28;20206;-68
2023/12/15 12:36:59;;;;;;;8.35;2.60;;;;;;;;;;5012024;28;20184;-68
2023/12/15 12:39:25;;;;;;;17.13;3.30;;;;;;;;;;5004606;28;20634;-67
2023/12/15 12:41:50;;;;;;;7.55;2.20;;;;;;;;;;5023950;28;20190;-69
2023/12/15 12:44:15;;;;;;;8.98;2.47;;;;;;;;;;5008786;28;21778;-70
2023/12/15 12:46:41;;;;;;;12.63;2.90;;;;;;;;;;5008611;28;20178;-70
2023/12/15 12:49:06;;;;;;;7.97;2.13;;;;;;;;;;5008519;28;20213;-69
2023/12/15 12:51:32;;;;;;;8.30;2.58;;;;;;;;;;5008188;28;20185;-70
2023/12/15 12:53:58;;;;;;;9.15;2.25;;;;;;;;;;5011906;28;20685;-70
2023/12/15 12:56:23;;;;;;;8.88;2.03;;;;;;;;;;5013168;28;20768;-70
2023/12/15 12:58:48;;;;;;;6.95;1.65;;;;;;;;;;5009529;28;20225;-70
2023/12/15 13:01:13;;;;;;;4.22;2.03;;;;;;;;;;5009339;28;20228;-69
2023/12/15 13:03:38;;;;;;;5.97;2.35;;;;;;;;;;5010555;28;20712;-70
2023/12/15 13:06:04;;;;;;;10.27;2.25;;;;;;;;;;5009918;28;20179;-70
2023/12/15 13:08:30;;;;;;;7.65;2.28;;;;;;;;;;5008860;28;20200;-70
2023/12/15 13:10:55;;;;;;;6.93;2.00;;;;;;;;;;5006889;28;20685;-70
2023/12/15 13:13:22;;;;;;;4.78;1.90;;;;;;;;;;5011530;28;20206;-70
2023/12/15 13:15:47;;;;;;;5.85;1.98;;;;;;;;;;5009513;28;20190;-70
2023/12/15 13:18:12;;;;;;;9.43;1.95;;;;;;;;;;5011611;28;20186;-70
2023/12/15 13:20:38;;;;;;;4.15;2.03;;;;;;;;;;5013199;28;20320;-70
2023/12/15 13:23:03;;;;;;;7.18;1.98;;;;;;;;;;5008608;28;20218;-70
2023/12/15 13:25:29;;;;;;;6.47;1.70;;;;;;;;;;5012378;28;20300;-70
2023/12/15 13:27:54;;;;;;;3.15;1.48;;;;;;;;;;5010697;28;20197;-70
2023/12/15 13:30:19;;;;;;;5.22;1.98;;;;;;;;;;5009841;28;20197;-70
2023/12/15 13:32:44;;;;;;;4.93;1.63;;;;;;;;;;5010339;28;20282;-70
2023/12/15 13:35:09;;;;;;;8.05;2.10;;;;;;;;;;5012109;28;20564;-70
2023/12/15 13:37:35;;;;;;;23.98;14.88;;;;;;;;;;5008586;28;20271;-70
2023/12/15 13:40:00;;;;;;;23.35;12.65;;;;;;;;;;5011461;28;21078;-70
2023/12/15 13:42:25;;;;;;;15.43;8.32;;;;;;;;;;5013664;28;20189;-70
2023/12/15 13:44:51;;;;;;;10.90;4.90;;;;;;;;;;5009847;28;20219;-70
2023/12/15 13:47:16;;;;;;;15.65;7.10;;;;;;;;;;5011452;28;20191;-70
2023/12/15 13:49:41;;;;;;;5.28;1.92;;;;;;;;;;5007674;28;20174;-70
2023/12/15 13:52:07;;;;;;;5.20;2.25;;;;;;;;;;5010120;28;20213;-70
2023/12/15 13:54:32;;;;;;;16.50;8.65;;;;;;;;;;5008930;28;20206;-69
2023/12/15 13:57:01;;;;;;;11.15;3.38;;;;;;;;;;5011525;28;20308;-69
2023/12/15 13:59:26;;;;;;;3.97;1.50;;;;;;;;;;5008445;28;20205;-69
2023/12/15 14:01:51;;;;;;;4.35;1.40;;;;;;;;;;5008755;28;20174;-69
2023/12/15 14:04:17;;;;;;;6.25;2.25;;;;;;;;;;5008871;28;20336;-69
2023/12/15 14:06:48;;;;;;;5.93;3.40;;;;;;;;;;5007130;28;20940;-69
2023/12/15 14:09:13;;;;;;;6.55;2.13;;;;;;;;;;5009535;28;20189;-70
2023/12/15 14:11:38;;;;;;;6.63;1.80;;;;;;;;;;5007128;28;21260;-70
2023/12/15 14:14:03;;;;;;;5.82;2.00;;;;;;;;;;5009061;28;21223;-70